Time;durP1;ratioP1;P1;durP2;ratioP2;P2;SDS_P1;SDS_P2;PMS_P1;PMS_P2;Temp;Humidity;BMP_temperature;BMP_pressure;BME280_temperature;BME280_humidity;BME280_pressure;Samples;Min_cycle;Max_cycle;Signal;HPM_P1;HPM_P2
2022/01/16 00:04:06;;;;;;;27.67;20.97;;;;;;;3.42;100.00;102277.06;4999417;28;20229;-76
2022/01/16 00:04:55;;;;;;;26.53;19.57;;;;;;;2.79;100.00;102206.72;5001614;28;20792;-74
2022/01/16 00:07:21;;;;;;;32.73;22.57;;;;;;;3.12;100.00;102277.56;4999067;28;20437;-75
2022/01/16 00:09:46;;;;;;;27.37;20.10;;;;;;;2.90;100.00;102177.63;5001006;28;20193;-76
2022/01/16 00:12:12;;;;;;;32.20;22.50;;;;;;;2.93;100.00;102185.31;4999474;28;20288;-75
2022/01/16 00:14:37;;;;;;;29.50;20.70;;;;;;;3.37;100.00;102263.28;4997448;28;20647;-75
2022/01/16 00:17:04;;;;;;;30.00;21.00;;;;;;;3.47;100.00;102269.59;5003120;28;20550;-75
2022/01/16 00:19:30;;;;;;;32.70;21.23;;;;;;;2.50;100.00;102146.16;4999001;28;20237;-75
2022/01/16 00:21:55;;;;;;;30.50;21.53;;;;;;;3.46;100.00;102262.59;4987358;28;20900;-75
2022/01/16 00:24:21;;;;;;;30.40;21.50;;;;;;;3.49;100.00;102280.09;4999570;28;21012;-76
2022/01/16 00:26:46;;;;;;;32.23;22.60;;;;;;;3.09;100.00;102256.56;4998573;28;20196;-76
2022/01/16 00:29:12;;;;;;;31.00;21.90;;;;;;;2.87;100.00;102207.84;4999698;28;20342;-76
2022/01/16 00:31:39;;;;;;;30.53;20.20;;;;;;;2.98;100.00;102283.91;5002043;28;20212;-76
2022/01/16 00:34:05;;;;;;;30.80;21.00;;;;;;;3.22;100.00;102293.63;5002828;28;20685;-76
2022/01/16 00:36:31;;;;;;;32.43;21.00;;;;;;;2.62;100.00;102162.94;4985870;28;20935;-76
2022/01/16 00:38:57;;;;;;;33.07;21.37;;;;;;;2.48;100.00;102199.22;5003708;28;20424;-75
2022/01/16 00:41:24;;;;;;;32.23;22.10;;;;;;;2.88;100.00;102275.78;4997406;28;20198;-75
2022/01/16 00:43:50;;;;;;;31.83;22.03;;;;;;;2.85;100.00;102243.34;4998254;28;20936;-75
2022/01/16 00:46:16;;;;;;;35.77;22.90;;;;;;;3.04;100.00;102283.44;4986084;28;20522;-76
2022/01/16 00:48:42;;;;;;;32.70;21.50;;;;;;;2.78;100.00;102207.66;4999688;28;20435;-79
2022/01/16 00:51:08;;;;;;;33.03;20.60;;;;;;;1.96;100.00;102056.59;5000118;28;20432;-77
2022/01/16 00:53:34;;;;;;;35.10;21.10;;;;;;;3.30;100.00;102273.53;5001567;28;20185;-77
2022/01/16 00:55:59;;;;;;;37.00;22.63;;;;;;;2.17;100.00;102131.81;4999452;28;21041;-75
2022/01/16 00:58:24;;;;;;;37.90;23.43;;;;;;;2.31;100.00;102156.41;5000397;28;20189;-75
2022/01/16 01:00:50;;;;;;;36.40;21.50;;;;;;;3.16;100.00;102248.06;4999805;28;20185;-75
2022/01/16 01:03:16;;;;;;;31.70;20.17;;;;;;;2.78;100.00;102163.47;4998568;28;20284;-75
2022/01/16 01:05:41;;;;;;;40.23;23.37;;;;;;;2.25;100.00;102070.34;4999861;28;20245;-76
2022/01/16 01:08:08;;;;;;;35.70;22.43;;;;;;;2.86;100.00;102166.38;4983612;28;21072;-76
2022/01/16 01:10:37;;;;;;;44.30;25.43;;;;;;;2.84;100.00;102210.72;4983278;28;20194;-75
2022/01/16 01:13:23;;;;;;;44.53;24.80;;;;;;;2.79;100.00;102234.06;4998052;28;20448;-76
2022/01/16 01:15:52;;;;;;;41.03;23.87;;;;;;;2.41;100.00;102171.50;4987515;28;20782;-76
2022/01/16 01:18:20;;;;;;;43.60;24.50;;;;;;;2.94;100.00;102263.88;5004338;28;20442;-76
2022/01/16 01:20:48;;;;;;;40.67;25.10;;;;;;;2.51;100.00;102208.75;5001111;28;20494;-76
2022/01/16 01:23:14;;;;;;;37.73;22.63;;;;;;;2.20;100.00;102098.97;4999826;28;20492;-76
2022/01/16 01:25:41;;;;;;;37.90;23.80;;;;;;;2.25;100.00;102102.94;4997938;28;20503;-76
2022/01/16 01:28:08;;;;;;;38.10;24.13;;;;;;;1.97;100.00;102167.66;5000497;28;20425;-75
2022/01/16 01:30:34;;;;;;;34.03;22.50;;;;;;;2.30;100.00;102158.22;4999015;28;20977;-76
2022/01/16 01:32:59;;;;;;;34.87;21.30;;;;;;;2.00;100.00;102135.69;5001204;28;20456;-76
2022/01/16 01:35:25;;;;;;;34.50;21.90;;;;;;;1.91;100.00;102141.63;5001279;28;20188;-78
2022/01/16 01:37:51;;;;;;;33.73;21.30;;;;;;;2.34;100.00;102209.97;5000281;28;20190;-76
2022/01/16 01:40:22;;;;;;;34.73;21.30;;;;;;;2.68;100.00;102265.78;4997726;28;20432;-78
2022/01/16 01:43:05;;;;;;;35.07;22.53;;;;;;;2.14;100.00;102247.63;4996210;28;20209;-76
2022/01/16 01:51:14;;;;;;;39.13;22.87;;;;;;;1.98;100.00;102164.03;4998341;28;20427;-75
2022/01/16 01:53:42;;;;;;;39.27;24.80;;;;;;;1.97;100.00;102085.63;4986422;28;20440;-75
2022/01/16 01:56:09;;;;;;;38.60;24.13;;;;;;;1.92;100.00;102044.56;5001662;28;20425;-76
2022/01/16 01:58:35;;;;;;;48.23;26.70;;;;;;;2.24;100.00;102138.31;5001021;28;20439;-75
2022/01/16 02:01:01;;;;;;;45.97;27.17;;;;;;;2.26;100.00;102157.59;4999851;28;20434;-75
2022/01/16 02:05:52;;;;;;;46.77;27.20;;;;;;;2.27;100.00;102147.84;4999963;28;20464;-77
2022/01/16 02:08:18;;;;;;;44.13;25.80;;;;;;;1.79;100.00;102092.22;5001224;28;20536;-78
2022/01/16 02:10:43;;;;;;;44.90;25.93;;;;;;;1.09;100.00;101965.94;4999451;28;20669;-76
2022/01/16 02:13:19;;;;;;;48.77;26.70;;;;;;;1.92;100.00;102114.22;4998826;28;20487;-77
2022/01/16 02:31:59;;;;;;;41.37;25.23;;;;;;;1.90;100.00;102166.38;5003019;28;20459;-78
2022/01/16 02:34:34;;;;;;;42.07;24.80;;;;;;;2.15;100.00;102167.28;4999955;28;20542;-76
2022/01/16 02:37:05;;;;;;;42.87;25.27;;;;;;;2.28;100.00;102226.31;5004968;28;20443;-76
2022/01/16 02:39:34;;;;;;;39.70;24.50;;;;;;;2.40;100.00;102235.16;5005060;28;20811;-78
2022/01/16 02:42:01;;;;;;;44.23;26.77;;;;;;;2.49;100.00;102231.88;5002617;28;21283;-77
2022/01/16 02:46:52;;;;;;;39.37;24.33;;;;;;;1.27;100.00;102066.88;5003164;28;20427;-77
2022/01/16 02:49:28;;;;;;;42.27;25.67;;;;;;;1.91;100.00;102160.16;5002856;28;20196;-77
2022/01/16 02:52:10;;;;;;;40.00;25.13;;;;;;;2.50;100.00;102233.56;4999362;28;20200;-78
2022/01/16 02:54:38;;;;;;;43.80;26.07;;;;;;;2.48;100.00;102224.88;5000176;28;20432;-79
2022/01/16 02:57:05;;;;;;;40.13;26.37;;;;;;;1.34;100.00;102145.63;5003926;28;20439;-75
2022/01/16 02:59:31;;;;;;;39.83;26.37;;;;;;;1.93;100.00;102207.66;5002840;28;20920;-75
2022/01/16 03:01:57;;;;;;;45.87;26.60;;;;;;;1.11;100.00;102091.72;5004364;28;20470;-76
2022/01/16 03:04:22;;;;;;;37.77;25.30;;;;;;;1.57;100.00;102093.78;5003040;28;20225;-76
2022/01/16 03:06:48;;;;;;;36.20;24.63;;;;;;;1.23;100.00;102073.31;5004751;28;20247;-76
2022/01/16 03:09:14;;;;;;;37.43;23.53;;;;;;;1.81;100.00;102172.34;5001944;28;20231;-76
2022/01/16 03:11:48;;;;;;;41.50;25.03;;;;;;;1.66;100.00;102121.38;5003386;28;20610;-76
2022/01/16 03:14:17;;;;;;;40.23;25.23;;;;;;;0.92;100.00;102050.84;5002806;28;20408;-75
2022/01/16 03:16:47;;;;;;;39.40;24.00;;;;;;;1.69;100.00;102152.06;5004255;28;20478;-76
2022/01/16 03:22:04;;;;;;;45.47;27.13;;;;;;;1.00;100.00;102075.78;5013864;23;20516;-80
2022/01/16 03:24:42;;;;;;;41.40;26.80;;;;;;;0.92;100.00;102029.69;5016406;28;20555;-82
2022/01/16 03:27:16;;;;;;;50.00;28.50;;;;;;;0.98;100.00;102074.19;5008556;28;20819;-82
2022/01/16 03:29:45;;;;;;;47.27;26.87;;;;;;;0.45;100.00;101989.78;5007112;28;20427;-80
2022/01/16 03:32:14;;;;;;;47.23;26.43;;;;;;;1.54;100.00;102138.97;5021332;28;20451;-83
2022/01/16 03:34:39;;;;;;;45.40;26.50;;;;;;;1.09;100.00;102058.44;5019975;28;20517;-82
2022/01/16 03:37:05;;;;;;;47.03;27.93;;;;;;;1.43;100.00;102114.22;5019704;28;20842;-81
2022/01/16 03:39:30;;;;;;;48.63;28.50;;;;;;;1.64;100.00;102131.22;5022003;28;20188;-82
2022/01/16 03:41:58;;;;;;;49.67;28.47;;;;;;;1.05;100.00;102062.25;5018566;28;20208;-81
2022/01/16 03:44:24;;;;;;;47.73;27.97;;;;;;;1.43;100.00;102088.63;5020920;28;20554;-83
2022/01/16 03:46:49;;;;;;;52.07;29.70;;;;;;;-0.17;100.00;101866.47;5019226;28;20447;-81
2022/01/16 03:49:21;;;;;;;48.67;28.80;;;;;;;-0.78;100.00;101754.59;5020383;28;20189;-81
2022/01/16 03:51:49;;;;;;;51.10;27.93;;;;;;;1.25;100.00;102090.78;5018537;28;20185;-81
2022/01/16 03:54:18;;;;;;;50.63;28.97;;;;;;;1.02;100.00;102068.59;5018714;28;20858;-82
2022/01/16 03:56:43;;;;;;;51.93;28.87;;;;;;;0.92;100.00;102082.53;5020568;28;20435;-80
2022/01/16 03:59:09;;;;;;;58.43;30.73;;;;;;;0.67;100.00;101983.88;5020046;28;20431;-83
2022/01/16 04:01:35;;;;;;;61.70;30.17;;;;;;;0.28;100.00;101945.22;5020135;28;20271;-83
2022/01/16 04:04:02;;;;;;;60.30;32.00;;;;;;;-0.43;100.00;101843.63;5019661;28;20916;-83
2022/01/16 04:06:27;;;;;;;55.87;30.93;;;;;;;1.52;100.00;102119.69;5019821;28;20184;-80
2022/01/16 04:08:54;;;;;;;60.27;31.30;;;;;;;1.46;100.00;102116.66;5007277;28;20427;-83
2022/01/16 04:11:21;;;;;;;56.93;31.67;;;;;;;1.54;100.00;102117.81;5021501;28;20675;-82
2022/01/16 04:14:02;;;;;;;56.53;32.77;;;;;;;1.46;100.00;102128.06;5021101;28;20490;-82
2022/01/16 04:16:28;;;;;;;54.43;30.93;;;;;;;0.60;100.00;101940.34;5020693;28;20451;-84
2022/01/16 04:18:53;;;;;;;53.37;30.63;;;;;;;1.06;100.00;102062.13;5006324;28;20478;-84
2022/01/16 04:21:21;;;;;;;63.20;32.83;;;;;;;0.88;100.00;102032.56;5004363;28;20424;-84
2022/01/16 04:23:47;;;;;;;64.37;32.20;;;;;;;0.94;100.00;102080.66;5019272;28;20630;-83
2022/01/16 04:26:13;;;;;;;61.43;33.37;;;;;;;-0.52;100.00;101802.91;5019976;28;20482;-82
2022/01/16 04:28:39;;;;;;;60.53;31.50;;;;;;;-0.26;100.00;101836.31;5021250;28;20423;-80
2022/01/16 04:31:04;;;;;;;60.40;31.93;;;;;;;1.15;100.00;102052.72;5004690;28;20488;-78
2022/01/16 04:33:30;;;;;;;67.87;34.20;;;;;;;0.01;100.00;101914.50;5017854;28;20680;-81
2022/01/16 04:35:56;;;;;;;66.77;32.23;;;;;;;1.33;100.00;102101.66;5004404;28;20875;-83
2022/01/16 04:38:21;;;;;;;65.90;33.57;;;;;;;0.48;100.00;101984.28;5012416;28;20188;-83
2022/01/16 04:43:47;;;;;;;66.93;33.37;;;;;;;1.53;100.00;102116.13;5017273;28;20216;-85
2022/01/16 04:46:14;;;;;;;69.93;35.20;;;;;;;1.55;100.00;102103.63;5005344;28;20515;-87
2022/01/16 04:48:39;;;;;;;74.97;34.70;;;;;;;-0.25;100.00;101861.72;5018349;28;20428;-80
2022/01/16 04:51:04;;;;;;;75.67;36.10;;;;;;;0.41;100.00;101986.50;5021172;28;20434;-84
2022/01/16 04:53:30;;;;;;;81.20;36.20;;;;;;;0.72;100.00;101983.53;5017603;28;20201;-85
2022/01/16 04:55:55;;;;;;;82.60;36.10;;;;;;;1.23;100.00;102023.94;5020340;28;20302;-83
2022/01/16 04:58:22;;;;;;;74.97;36.17;;;;;;;0.36;100.00;101890.13;5003423;28;20185;-82
2022/01/16 05:00:48;;;;;;;78.53;37.97;;;;;;;0.78;100.00;102006.88;5018743;28;20192;-84
2022/01/16 05:03:13;;;;;;;79.80;35.53;;;;;;;0.74;100.00;101948.16;5020045;28;20444;-76
2022/01/16 05:05:38;;;;;;;84.10;39.60;;;;;;;1.30;100.00;102042.84;5018417;28;20180;-80
2022/01/16 05:08:04;;;;;;;78.57;37.20;;;;;;;0.78;100.00;101961.97;5019535;28;20543;-84
2022/01/16 05:10:29;;;;;;;86.90;36.50;;;;;;;1.54;100.00;102095.81;5019309;28;20188;-80
2022/01/16 05:13:04;;;;;;;77.63;36.57;;;;;;;1.24;100.00;102001.84;5019183;28;20208;-82
2022/01/16 05:18:21;;;;;;;78.70;37.50;;;;;;;0.74;100.00;101899.78;4990552;28;20919;-85
2022/01/16 05:20:46;;;;;;;74.60;37.57;;;;;;;1.82;100.00;102060.25;5017046;28;20437;-82
2022/01/16 05:23:12;;;;;;;76.80;36.60;;;;;;;1.76;100.00;102081.88;5003684;28;20243;-83
2022/01/16 05:25:37;;;;;;;74.20;38.40;;;;;;;1.81;100.00;102055.94;5020689;28;20229;-82
2022/01/16 05:28:03;;;;;;;77.37;37.47;;;;;;;1.06;100.00;101923.88;5020305;28;20234;-83
2022/01/16 05:30:28;;;;;;;88.10;40.33;;;;;;;0.21;100.00;101779.41;5018805;28;20562;-77
2022/01/16 05:32:54;;;;;;;86.13;38.70;;;;;;;1.09;100.00;101911.28;5018298;28;20612;-82
2022/01/16 05:35:19;;;;;;;79.97;38.40;;;;;;;1.03;100.00;101882.69;5020018;28;20239;-81
2022/01/16 05:37:45;;;;;;;78.70;36.60;;;;;;;1.85;100.00;101985.94;5018459;28;20652;-83
2022/01/16 05:40:11;;;;;;;89.40;38.70;;;;;;;0.95;100.00;101885.03;5018483;28;20177;-80
2022/01/16 05:42:36;;;;;;;88.87;40.83;;;;;;;1.87;100.00;101999.09;5000166;28;20212;-81
2022/01/16 05:45:02;;;;;;;79.10;35.77;;;;;;;1.09;100.00;101889.31;5017571;28;20423;-82
2022/01/16 05:47:28;;;;;;;94.37;40.80;;;;;;;1.74;100.00;101984.13;5019030;28;20219;-80
2022/01/16 05:49:53;;;;;;;83.23;37.33;;;;;;;2.03;100.00;102026.94;5018010;28;20583;-80
2022/01/16 05:52:19;;;;;;;80.50;38.17;;;;;;;1.33;100.00;101937.75;5017546;28;20463;-82
2022/01/16 05:54:44;;;;;;;93.27;40.33;;;;;;;1.74;100.00;101999.16;5019588;28;20200;-83
2022/01/16 05:57:10;;;;;;;85.93;37.30;;;;;;;1.25;100.00;101863.47;5018221;28;20227;-81
2022/01/16 05:59:35;;;;;;;88.77;38.77;;;;;;;1.35;100.00;101906.75;5021091;28;20605;-81
2022/01/16 06:02:01;;;;;;;83.17;38.10;;;;;;;1.81;100.00;101977.41;5021263;28;20315;-82
2022/01/16 06:04:26;;;;;;;92.07;39.73;;;;;;;2.02;100.00;102009.34;5022582;28;20660;-82
2022/01/16 06:06:51;;;;;;;86.20;41.03;;;;;;;2.01;100.00;101985.66;5024048;28;20199;-81
2022/01/16 06:09:17;;;;;;;84.83;40.40;;;;;;;1.30;100.00;101852.53;5008273;28;20212;-83
2022/01/16 06:11:42;;;;;;;91.00;39.47;;;;;;;1.99;100.00;101969.91;5022974;28;20653;-83
2022/01/16 06:14:08;;;;;;;90.43;40.70;;;;;;;1.57;100.00;101868.16;5022786;28;20189;-82
2022/01/16 06:16:35;;;;;;;95.87;40.40;;;;;;;1.52;100.00;101920.53;5022617;28;20184;-77
2022/01/16 06:19:01;;;;;;;92.40;39.93;;;;;;;1.60;100.00;101919.97;5023413;28;20281;-81
2022/01/16 06:21:26;;;;;;;87.27;36.17;;;;;;;1.55;100.00;101926.44;5022187;28;20968;-80
2022/01/16 06:23:51;;;;;;;95.67;39.60;;;;;;;1.10;100.00;101812.59;5022447;28;20665;-81
2022/01/16 06:26:17;;;;;;;96.00;40.33;;;;;;;0.58;100.00;101757.44;5023759;28;20275;-82
2022/01/16 06:28:42;;;;;;;92.40;40.80;;;;;;;1.73;100.00;101899.56;5021866;28;20557;-83
2022/01/16 06:31:08;;;;;;;94.83;39.50;;;;;;;1.48;100.00;101871.50;5022138;28;20197;-83
2022/01/16 06:33:33;;;;;;;91.97;37.90;;;;;;;1.93;100.00;101927.19;5022989;28;20456;-80
2022/01/16 06:36:01;;;;;;;87.73;38.70;;;;;;;2.17;100.00;101945.63;5019934;28;20231;-82
2022/01/16 06:38:26;;;;;;;92.37;38.87;;;;;;;0.54;100.00;101697.91;5023551;28;20267;-81
2022/01/16 06:40:52;;;;;;;97.77;40.93;;;;;;;1.01;100.00;101763.03;5020946;28;20551;-81
2022/01/16 06:43:17;;;;;;;94.93;39.00;;;;;;;1.33;100.00;101810.00;5021498;28;20208;-83
2022/01/16 06:45:43;;;;;;;88.13;36.10;;;;;;;1.51;100.00;101829.81;5020840;28;20271;-77
2022/01/16 06:48:08;;;;;;;97.40;42.50;;;;;;;1.81;100.00;101871.59;5022048;28;20180;-81
2022/01/16 06:50:34;;;;;;;95.33;40.33;;;;;;;2.07;100.00;101964.03;5021225;28;20185;-81
2022/01/16 06:52:59;;;;;;;98.63;38.73;;;;;;;1.70;100.00;101903.28;5021475;28;20201;-81
2022/01/16 06:55:25;;;;;;;92.40;40.53;;;;;;;2.28;100.00;101966.00;5008455;28;20214;-81
2022/01/16 06:57:50;;;;;;;91.30;40.50;;;;;;;2.47;100.00;102008.66;5022440;28;20196;-81
2022/01/16 07:00:16;;;;;;;96.93;40.63;;;;;;;2.45;100.00;102029.13;5020895;28;20192;-82
2022/01/16 07:02:48;;;;;;;98.77;39.00;;;;;;;2.12;100.00;101961.88;5021230;28;20699;-81
2022/01/16 07:05:17;;;;;;;96.43;40.77;;;;;;;2.56;100.00;102030.94;5022746;28;20420;-80
2022/01/16 07:07:43;;;;;;;95.33;41.23;;;;;;;1.10;100.00;101765.03;5020408;28;21085;-81
2022/01/16 07:10:09;;;;;;;95.83;37.93;;;;;;;0.85;100.00;101768.63;5021358;28;20431;-79
2022/01/16 07:12:34;;;;;;;102.20;38.67;;;;;;;2.30;100.00;101995.88;5022521;28;20291;-79
2022/01/16 07:15:00;;;;;;;86.77;38.07;;;;;;;2.03;100.00;101955.50;5022318;28;20201;-82
2022/01/16 07:17:25;;;;;;;97.17;40.20;;;;;;;2.17;100.00;101995.94;5006208;28;20195;-82
2022/01/16 07:19:51;;;;;;;96.17;40.47;;;;;;;2.62;100.00;102041.06;5019326;28;20181;-82
2022/01/16 07:22:18;;;;;;;89.30;39.47;;;;;;;1.96;100.00;101927.78;5022429;28;20236;-82
2022/01/16 07:24:43;;;;;;;90.10;39.20;;;;;;;2.52;100.00;101990.63;5008863;28;20196;-80
2022/01/16 07:27:09;;;;;;;88.40;38.73;;;;;;;2.60;100.00;102008.56;5021836;28;20430;-81
2022/01/16 07:29:34;;;;;;;93.60;38.90;;;;;;;2.24;100.00;101950.34;5021862;28;20724;-83
2022/01/16 07:32:00;;;;;;;81.27;35.90;;;;;;;1.47;100.00;101782.53;5018523;28;20353;-83
2022/01/16 07:34:25;;;;;;;92.17;38.83;;;;;;;2.74;100.00;101984.50;5020977;28;20213;-81
2022/01/16 07:36:51;;;;;;;93.63;39.27;;;;;;;2.14;100.00;101930.00;5019510;28;20188;-79
2022/01/16 07:39:16;;;;;;;104.90;41.70;;;;;;;2.62;100.00;102011.94;5022513;28;20184;-84
2022/01/16 07:41:42;;;;;;;94.50;40.07;;;;;;;1.60;100.00;101849.41;5008599;28;20224;-82
2022/01/16 07:44:07;;;;;;;93.37;39.37;;;;;;;1.99;100.00;101892.31;5007072;28;20644;-82
2022/01/16 07:46:32;;;;;;;92.80;40.57;;;;;;;2.53;100.00;102008.19;5022701;28;20717;-83
2022/01/16 07:48:58;;;;;;;86.17;39.67;;;;;;;1.73;100.00;101846.69;5021753;28;20663;-81
2022/01/16 07:51:25;;;;;;;91.23;39.23;;;;;;;1.47;100.00;101812.47;5006124;28;20191;-83
2022/01/16 07:53:52;;;;;;;85.53;37.57;;;;;;;2.41;100.00;101948.22;5018786;28;20221;-81
2022/01/16 07:56:18;;;;;;;84.13;39.50;;;;;;;2.52;100.00;101926.19;5019105;28;20487;-82
2022/01/16 07:58:43;;;;;;;81.50;37.57;;;;;;;3.23;100.00;102041.59;5019849;28;21097;-82
2022/01/16 08:01:09;;;;;;;83.43;37.70;;;;;;;2.49;100.00;101941.38;5004472;28;20575;-81
2022/01/16 08:03:35;;;;;;;84.27;40.80;;;;;;;2.87;100.00;102022.31;5021726;28;20277;-82
2022/01/16 08:06:01;;;;;;;84.07;38.10;;;;;;;2.75;100.00;101959.69;5006197;28;20188;-82
2022/01/16 08:08:26;;;;;;;87.97;39.10;;;;;;;1.90;100.00;101832.16;5020672;28;21069;-81
2022/01/16 08:10:54;;;;;;;79.03;38.70;;;;;;;3.42;100.00;102050.75;5021065;28;20572;-82
2022/01/16 08:13:20;;;;;;;73.80;37.20;;;;;;;2.52;100.00;101921.75;5020027;28;20804;-81
2022/01/16 08:15:45;;;;;;;86.17;40.67;;;;;;;2.79;100.00;101961.13;5018340;28;20530;-83
2022/01/16 08:18:10;;;;;;;78.40;38.27;;;;;;;2.34;100.00;101843.75;5025290;28;20560;-83
2022/01/16 08:20:37;;;;;;;79.47;38.53;;;;;;;2.93;100.00;101923.78;5024513;28;20188;-83
2022/01/16 08:23:02;;;;;;;78.70;36.93;;;;;;;3.46;100.00;102015.06;5005564;28;20302;-84
2022/01/16 08:25:28;;;;;;;81.30;38.20;;;;;;;3.43;100.00;101978.16;5009184;28;20463;-85
2022/01/16 08:27:54;;;;;;;74.50;38.47;;;;;;;3.43;100.00;101999.38;5005852;28;20196;-82
2022/01/16 08:30:19;;;;;;;71.43;37.40;;;;;;;3.87;100.00;102048.00;5003414;28;20185;-86
2022/01/16 08:32:45;;;;;;;69.63;35.90;;;;;;;2.77;100.00;101850.94;5006649;28;20209;-83
2022/01/16 08:35:12;;;;;;;74.40;35.43;;;;;;;3.71;100.00;101993.53;5020607;28;20209;-84
2022/01/16 08:37:37;;;;;;;75.23;38.20;;;;;;;3.75;100.00;101994.13;5018041;28;20211;-81
2022/01/16 08:40:04;;;;;;;62.10;35.07;;;;;;;4.06;100.00;102026.94;5004942;28;20436;-85
2022/01/16 08:42:30;;;;;;;73.10;36.90;;;;;;;2.56;100.00;101797.88;5019041;28;20211;-79
2022/01/16 08:44:55;;;;;;;75.03;34.90;;;;;;;4.15;100.00;102054.53;5020146;28;20793;-84
2022/01/16 08:47:21;;;;;;;58.93;33.60;;;;;;;3.68;100.00;101947.84;5020691;28;20188;-82
2022/01/16 08:49:46;;;;;;;59.13;31.73;;;;;;;2.78;100.00;101775.78;5011246;28;20191;-84
2022/01/16 08:52:13;;;;;;;58.53;33.67;;;;;;;3.55;100.00;101884.31;5019425;28;20204;-84
2022/01/16 08:54:39;;;;;;;61.37;31.80;;;;;;;3.66;100.00;101900.19;5001188;28;20204;-82
2022/01/16 08:57:05;;;;;;;59.70;35.53;;;;;;;4.47;100.00;102035.91;5020328;28;20511;-82
2022/01/16 08:59:30;;;;;;;59.30;33.30;;;;;;;3.56;100.00;101873.59;5021263;28;20185;-86
2022/01/16 09:01:55;;;;;;;68.90;33.77;;;;;;;2.15;100.00;101649.31;5020920;28;20505;-80
2022/01/16 09:04:21;;;;;;;54.27;30.80;;;;;;;4.05;100.00;101972.13;5021841;28;20177;-83
2022/01/16 09:06:46;;;;;;;57.13;30.90;;;;;;;4.43;100.00;102005.28;5023646;28;20231;-82
2022/01/16 09:09:12;;;;;;;47.40;29.70;;;;;;;2.96;100.00;101768.16;5019462;28;20264;-82
2022/01/16 09:11:37;;;;;;;50.57;29.50;;;;;;;3.29;100.00;101821.00;5016945;28;20188;-80
2022/01/16 09:14:03;;;;;;;51.13;29.27;;;;;;;4.48;100.00;102024.31;5020138;28;20207;-83
2022/01/16 09:16:30;;;;;;;48.73;27.70;;;;;;;4.47;100.00;102014.66;5002931;28;20643;-83
2022/01/16 09:18:56;;;;;;;42.17;26.63;;;;;;;4.79;100.00;102051.78;5019957;28;20187;-81
2022/01/16 09:21:21;;;;;;;41.20;25.50;;;;;;;4.56;100.00;102005.91;5021105;28;20427;-84
2022/01/16 09:23:49;;;;;;;50.23;28.57;;;;;;;4.80;100.00;102052.63;5002616;23;20229;-73
2022/01/16 09:26:15;;;;;;;46.07;27.43;;;;;;;4.20;100.00;101946.97;5002153;28;20189;-75
2022/01/16 09:28:41;;;;;;;41.40;26.13;;;;;;;4.68;100.00;102018.13;4999992;28;20432;-73
2022/01/16 09:31:06;;;;;;;47.30;28.60;;;;;;;4.71;100.00;102033.81;4998236;28;20498;-76
2022/01/16 09:33:31;;;;;;;48.77;29.30;;;;;;;4.86;100.00;102054.75;4980834;28;21005;-75
2022/01/16 09:35:57;;;;;;;44.00;27.40;;;;;;;4.28;100.00;101971.06;5000028;28;20577;-75
2022/01/16 09:38:22;;;;;;;43.10;26.33;;;;;;;3.68;100.00;101865.59;5000810;28;20196;-75
2022/01/16 09:40:49;;;;;;;46.23;26.20;;;;;;;4.94;100.00;102055.75;4997966;28;20189;-76
2022/01/16 09:43:15;;;;;;;39.43;24.87;;;;;;;4.43;100.00;101966.25;4999263;28;20346;-75
2022/01/16 09:45:42;;;;;;;38.13;23.67;;;;;;;4.01;100.00;101896.38;4999104;28;20476;-76
2022/01/16 09:48:07;;;;;;;38.33;23.73;;;;;;;4.99;100.00;102069.50;5001060;28;20470;-75
2022/01/16 09:50:33;;;;;;;39.67;24.73;;;;;;;5.11;100.00;102074.75;4998118;28;20677;-76
2022/01/16 09:53:00;;;;;;;34.47;23.17;;;;;;;4.98;100.00;102056.38;4998556;28;20704;-76
2022/01/16 09:55:26;;;;;;;37.77;24.10;;;;;;;4.66;100.00;101998.00;5000392;28;20206;-75
2022/01/16 09:57:54;;;;;;;32.90;22.53;;;;;;;3.79;100.00;101881.41;4978459;28;20435;-76
2022/01/16 10:00:21;;;;;;;34.50;21.93;;;;;;;5.24;100.00;102095.81;4998274;28;20859;-76
2022/01/16 10:02:48;;;;;;;38.97;22.83;;;;;;;5.27;100.00;102082.25;4982475;28;20501;-75
2022/01/16 10:05:28;;;;;;;30.60;21.80;;;;;;;5.30;100.00;102088.16;4998187;28;20808;-76
2022/01/16 10:07:55;;;;;;;31.13;21.30;;;;;;;4.92;100.00;102033.81;4994083;28;20423;-75
2022/01/16 10:10:25;;;;;;;36.67;22.97;;;;;;;5.29;100.00;102099.75;4999216;28;20435;-77
2022/01/16 10:12:54;;;;;;;30.93;20.40;;;;;;;4.66;100.00;101995.34;4999556;28;20531;-77
2022/01/16 10:15:25;;;;;;;36.67;22.33;;;;;;;5.32;100.00;102106.63;4982462;28;20487;-75
2022/01/16 10:17:54;;;;;;;33.40;22.50;;;;;;;5.37;100.00;102099.94;4997841;28;20519;-77
2022/01/16 10:20:20;;;;;;;39.03;23.23;;;;;;;5.15;100.00;102060.19;4999918;28;20451;-78
2022/01/16 10:22:50;;;;;;;37.70;22.63;;;;;;;5.43;100.00;102099.38;4999107;28;20484;-78
2022/01/16 10:25:33;;;;;;;33.37;22.40;;;;;;;5.19;100.00;102053.66;4983936;28;20432;-76
2022/01/16 10:28:02;;;;;;;32.77;22.10;;;;;;;5.46;100.00;102089.47;4998363;28;20456;-76
2022/01/16 10:30:40;;;;;;;29.80;22.80;;;;;;;5.36;100.00;102076.13;4999367;28;20499;-76
2022/01/16 10:33:19;;;;;;;36.83;23.07;;;;;;;5.52;100.00;102089.75;5000582;28;20499;-76
2022/01/16 10:35:47;;;;;;;34.33;22.60;;;;;;;4.66;100.00;101961.63;4999178;28;20547;-76
2022/01/16 10:38:18;;;;;;;35.60;22.07;;;;;;;4.93;100.00;102000.91;4998975;28;20427;-74
2022/01/16 10:40:50;;;;;;;29.27;21.17;;;;;;;4.45;100.00;101902.34;4998461;28;20855;-76
2022/01/16 10:43:16;;;;;;;33.43;21.97;;;;;;;5.43;100.00;102061.28;5000213;28;20538;-77
2022/01/16 10:45:43;;;;;;;32.40;21.43;;;;;;;5.55;100.00;102093.97;4999231;28;20507;-75
2022/01/16 10:48:10;;;;;;;35.90;22.20;;;;;;;5.62;100.00;102092.47;4988833;28;20582;-76
2022/01/16 10:50:39;;;;;;;36.00;20.23;;;;;;;5.65;100.00;102090.38;4987849;28;20471;-77
2022/01/16 10:53:08;;;;;;;33.97;22.43;;;;;;;5.37;100.00;102048.53;4983756;28;20464;-77
2022/01/16 10:55:41;;;;;;;34.70;23.07;;;;;;;5.72;100.00;102085.34;5002727;28;20472;-77
2022/01/16 10:58:24;;;;;;;30.60;21.70;;;;;;;5.75;100.00;102094.88;4985104;28;20427;-77
2022/01/16 11:01:03;;;;;;;39.63;22.30;;;;;;;5.78;100.00;102092.75;5002501;28;20446;-76
2022/01/16 11:03:37;;;;;;;34.30;21.27;;;;;;;5.38;100.00;102032.44;4987364;28;20455;-77
2022/01/16 11:06:03;;;;;;;29.10;21.07;;;;;;;5.05;100.00;101980.38;5001537;28;20482;-76
2022/01/16 11:08:28;;;;;;;34.33;20.63;;;;;;;5.80;100.00;102093.47;5002828;28;20437;-77
2022/01/16 11:10:59;;;;;;;36.70;21.83;;;;;;;5.85;100.00;102091.25;5001857;28;20185;-77
2022/01/16 11:13:32;;;;;;;29.50;22.40;;;;;;;5.87;100.00;102104.41;5001647;28;20217;-77
2022/01/16 11:16:02;;;;;;;28.77;19.60;;;;;;;5.31;100.00;102015.31;4984206;28;21058;-77
2022/01/16 11:18:27;;;;;;;33.07;21.83;;;;;;;5.51;100.00;102034.84;5001850;28;20930;-77
2022/01/16 11:21:13;;;;;;;33.10;22.10;;;;;;;5.24;100.00;101990.25;5002454;28;20523;-77
2022/01/16 11:26:19;;;;;;;34.20;21.57;;;;;;;5.35;100.00;101997.25;5002133;28;20431;-78
2022/01/16 11:28:45;;;;;;;34.50;21.20;;;;;;;5.96;100.00;102094.78;5005069;28;20416;-77
2022/01/16 11:31:12;;;;;;;34.90;20.70;;;;;;;5.91;100.00;102097.03;5001414;28;20494;-77
2022/01/16 11:33:39;;;;;;;30.67;20.00;;;;;;;4.17;100.00;101832.22;5002357;28;20251;-77
2022/01/16 11:36:13;;;;;;;37.83;19.93;;;;;;;5.49;100.00;102014.69;5002117;28;20475;-78
2022/01/16 11:38:42;;;;;;;31.50;20.43;;;;;;;6.07;100.00;102098.16;5002320;28;20469;-78
2022/01/16 11:41:24;;;;;;;33.73;21.60;;;;;;;5.83;100.00;102073.72;5001121;28;20432;-77
2022/01/16 11:43:54;;;;;;;34.10;20.57;;;;;;;6.13;100.00;102109.25;5001725;28;20433;-77
2022/01/16 11:46:24;;;;;;;32.93;20.20;;;;;;;6.14;100.00;102110.97;5001519;28;20518;-77
2022/01/16 11:48:58;;;;;;;32.23;21.07;;;;;;;6.12;100.00;102105.75;5002106;28;20482;-77